Time;durP1;ratioP1;P1;durP2;ratioP2;P2;SDS_P1;SDS_P2;PMS_P1;PMS_P2;Temp;Humidity;BMP_temperature;BMP_pressure;BME280_temperature;BME280_humidity;BME280_pressure;Samples;Min_cycle;Max_cycle;Signal;HPM_P1;HPM_P2
2021/12/15 00:01:08;;;;;;;24.52;12.32;;;12.00;63.70;;;;;;6112041;23;20017;-57
2021/12/15 00:03:35;;;;;;;22.38;12.63;;;12.00;63.70;;;;;;6115707;23;20450;-52
2021/12/15 00:06:03;;;;;;;28.38;12.98;;;11.90;63.70;;;;;;6114656;23;20010;-52
2021/12/15 00:08:30;;;;;;;23.17;11.90;;;12.00;63.70;;;;;;6114170;23;20309;-55
2021/12/15 00:10:56;;;;;;;20.15;10.68;;;12.00;63.70;;;;;;6112702;23;20006;-57
2021/12/15 00:13:23;;;;;;;23.67;12.32;;;12.00;63.70;;;;;;6114445;23;20014;-54
2021/12/15 00:15:49;;;;;;;21.90;11.95;;;12.00;63.70;;;;;;6113311;23;20018;-53
2021/12/15 00:18:16;;;;;;;22.23;11.40;;;12.00;63.70;;;;;;6113956;23;20350;-54
2021/12/15 00:20:43;;;;;;;21.70;12.15;;;12.00;63.70;;;;;;6116556;23;19998;-54
2021/12/15 00:23:09;;;;;;;24.42;12.02;;;12.00;63.60;;;;;;6117209;23;19998;-57
2021/12/15 00:25:38;;;;;;;21.42;11.45;;;12.00;63.70;;;;;;6116557;23;20014;-52
2021/12/15 00:28:05;;;;;;;22.45;11.32;;;12.00;63.70;;;;;;6116397;23;20005;-51
2021/12/15 00:30:32;;;;;;;23.35;11.90;;;12.00;63.70;;;;;;6115967;23;20010;-53
2021/12/15 00:32:58;;;;;;;21.52;10.68;;;12.00;63.70;;;;;;6113173;23;20009;-55
2021/12/15 00:35:25;;;;;;;22.30;12.43;;;12.00;63.70;;;;;;6114768;23;20025;-52
2021/12/15 00:37:52;;;;;;;23.80;12.05;;;12.00;63.70;;;;;;6116881;23;20005;-55
2021/12/15 00:40:21;;;;;;;20.52;11.27;;;12.00;63.70;;;;;;6116626;23;20009;-53
2021/12/15 00:42:47;;;;;;;21.63;11.57;;;12.00;64.40;;;;;;6115047;23;19998;-56
2021/12/15 00:45:14;;;;;;;20.83;11.10;;;12.00;63.70;;;;;;6117323;23;20010;-56
2021/12/15 00:47:40;;;;;;;28.23;12.65;;;12.00;63.70;;;;;;6112550;23;20014;-55
2021/12/15 00:50:09;;;;;;;21.15;10.45;;;12.00;63.70;;;;;;6115418;23;20002;-54
2021/12/15 00:52:37;;;;;;;21.30;10.23;;;12.00;63.70;;;;;;6115778;23;20010;-56
2021/12/15 00:55:08;;;;;;;18.63;10.90;;;12.00;63.70;;;;;;6116322;23;19998;-53
2021/12/15 00:57:34;;;;;;;19.95;10.85;;;12.00;63.70;;;;;;6125935;23;20726;-54
2021/12/15 01:00:01;;;;;;;22.35;10.93;;;12.00;63.70;;;;;;6115360;23;20423;-53
2021/12/15 01:02:28;;;;;;;23.20;11.35;;;12.00;63.70;;;;;;6115523;23;20459;-54
2021/12/15 01:04:54;;;;;;;18.17;10.20;;;12.00;63.80;;;;;;6116630;23;20022;-56
2021/12/15 01:07:21;;;;;;;20.65;10.23;;;12.00;63.80;;;;;;6117107;23;20016;-54
2021/12/15 01:09:54;;;;;;;20.30;9.68;;;12.00;63.90;;;;;;6114920;23;20018;-56
2021/12/15 01:20:41;;;;;;;9.45;5.90;;;12.00;63.90;;;;;;6126443;23;20021;-55
2021/12/15 01:23:13;;;;;;;8.43;4.93;;;12.00;63.90;;;;;;6116839;23;20383;-55
2021/12/15 01:25:52;;;;;;;8.27;4.53;;;12.00;63.90;;;;;;6125091;23;20331;-52
2021/12/15 01:28:19;;;;;;;8.15;4.68;;;12.00;63.90;;;;;;6122604;23;20002;-56
2021/12/15 01:30:47;;;;;;;7.40;4.53;;;12.00;63.90;;;;;;6113918;23;20051;-55
2021/12/15 01:33:14;;;;;;;6.80;4.30;;;12.00;63.90;;;;;;6115610;23;20014;-55
2021/12/15 01:35:45;;;;;;;9.10;5.38;;;12.00;63.90;;;;;;6117098;23;20344;-51
2021/12/15 01:38:12;;;;;;;9.98;4.68;;;12.00;63.90;;;;;;6115910;23;20001;-54
2021/12/15 01:40:43;;;;;;;7.32;4.43;;;12.00;63.90;;;;;;6115340;23;19998;-55
2021/12/15 01:43:36;;;;;;;10.25;4.93;;;12.00;64.00;;;;;;6117196;23;20013;-50
2021/12/15 01:49:04;;;;;;;6.90;4.18;;;12.00;63.90;;;;;;6124878;23;20009;-53
2021/12/15 01:51:30;;;;;;;6.78;3.95;;;12.00;63.90;;;;;;6090600;23;20010;-53
2021/12/15 01:53:57;;;;;;;6.80;3.60;;;12.00;63.90;;;;;;6114020;23;20005;-55
2021/12/15 01:56:23;;;;;;;9.55;3.83;;;12.10;63.90;;;;;;6114957;23;20029;-55
2021/12/15 01:58:49;;;;;;;7.68;4.07;;;12.10;64.00;;;;;;6115728;23;20013;-51
2021/12/15 02:01:26;;;;;;;6.57;3.90;;;12.10;64.00;;;;;;6113491;23;20006;-55
2021/12/15 02:03:54;;;;;;;10.80;4.20;;;12.10;64.00;;;;;;6116636;23;20006;-55
2021/12/15 02:06:20;;;;;;;6.05;3.47;;;12.10;64.00;;;;;;6116693;23;20010;-58
2021/12/15 02:08:48;;;;;;;7.38;3.60;;;12.10;63.90;;;;;;6114125;23;20017;-55
2021/12/15 02:11:15;;;;;;;7.80;3.55;;;12.10;63.90;;;;;;6115354;23;20017;-58
2021/12/15 02:13:42;;;;;;;8.20;2.95;;;12.10;63.90;;;;;;6116180;23;20013;-55
2021/12/15 02:16:08;;;;;;;5.32;3.00;;;12.10;63.80;;;;;;6114657;23;20010;-55
2021/12/15 02:18:41;;;;;;;5.85;3.10;;;12.10;63.70;;;;;;6114096;23;20013;-55
2021/12/15 02:21:14;;;;;;;5.55;3.47;;;12.10;63.70;;;;;;6126011;23;20009;-57
2021/12/15 02:23:46;;;;;;;7.13;3.63;;;12.10;63.60;;;;;;6126411;23;20009;-54
2021/12/15 02:26:28;;;;;;;5.50;3.10;;;12.10;63.60;;;;;;6125920;23;20001;-55
2021/12/15 02:28:57;;;;;;;4.85;2.90;;;12.10;63.50;;;;;;6125084;23;20510;-55
2021/12/15 02:37:20;;;;;;;4.03;2.63;;;12.10;63.40;;;;;;6124374;23;20009;-52
2021/12/15 02:40:10;;;;;;;6.20;2.78;;;12.10;63.30;;;;;;6122807;23;20655;-56
2021/12/15 02:42:45;;;;;;;3.40;2.20;;;12.10;63.30;;;;;;6115691;23;20002;-52
2021/12/15 02:45:15;;;;;;;3.25;2.38;;;12.10;63.10;;;;;;6114442;23;20006;-56
2021/12/15 02:47:42;;;;;;;2.97;1.88;;;12.10;63.00;;;;;;6108646;23;20009;-58
2021/12/15 02:50:12;;;;;;;2.83;1.90;;;12.10;63.00;;;;;;6116170;23;20002;-58
2021/12/15 02:52:38;;;;;;;5.10;2.08;;;12.10;62.80;;;;;;6114249;23;20068;-58
2021/12/15 02:55:06;;;;;;;2.88;2.00;;;12.10;62.80;;;;;;6115798;23;20017;-58
2021/12/15 02:57:33;;;;;;;3.03;2.00;;;12.10;62.70;;;;;;6115780;23;20420;-58
2021/12/15 03:00:04;;;;;;;3.03;2.05;;;12.10;62.70;;;;;;6113300;23;20335;-55
2021/12/15 03:08:12;;;;;;;5.57;2.92;;;12.10;62.30;;;;;;6115539;23;20339;-54
2021/12/15 03:16:17;;;;;;;5.57;3.22;;;12.20;63.00;;;;;;6123059;23;20021;-54
2021/12/15 03:18:43;;;;;;;5.03;2.95;;;12.10;62.20;;;;;;6111781;23;20265;-54
2021/12/15 03:21:16;;;;;;;5.05;3.25;;;12.10;62.10;;;;;;6112825;23;20335;-53
2021/12/15 03:24:13;;;;;;;5.13;3.05;;;12.10;62.00;;;;;;6124207;23;20279;-51
2021/12/15 03:26:51;;;;;;;6.25;3.55;;;12.10;61.90;;;;;;6107248;23;20001;-55
2021/12/15 03:35:19;;;;;;;4.70;2.80;;;12.10;61.70;;;;;;6125258;23;20013;-57
2021/12/15 03:37:51;;;;;;;4.10;2.47;;;12.10;61.60;;;;;;6114753;23;20426;-54
2021/12/15 03:40:24;;;;;;;6.03;2.72;;;12.10;61.50;;;;;;6113548;23;20002;-57
2021/12/15 03:43:00;;;;;;;7.55;2.60;;;12.10;61.50;;;;;;6112526;23;19994;-55
2021/12/15 03:45:43;;;;;;;4.10;2.28;;;12.10;61.40;;;;;;6123241;23;20002;-55
2021/12/15 03:48:14;;;;;;;3.97;2.45;;;12.10;61.30;;;;;;6122702;23;20006;-55
2021/12/15 03:50:42;;;;;;;3.20;2.38;;;12.10;61.30;;;;;;6114224;23;20006;-53
2021/12/15 03:53:11;;;;;;;5.80;2.70;;;12.10;61.30;;;;;;6115527;23;20209;-55
2021/12/15 03:55:38;;;;;;;4.45;2.47;;;12.10;61.30;;;;;;6115277;23;20002;-55
2021/12/15 03:58:09;;;;;;;4.45;2.50;;;12.10;61.30;;;;;;6114616;23;20025;-56
2021/12/15 04:00:39;;;;;;;3.65;2.40;;;12.10;61.20;;;;;;6112428;23;20014;-56
2021/12/15 04:03:08;;;;;;;3.53;2.33;;;12.10;61.10;;;;;;6115003;23;20017;-51
2021/12/15 04:05:34;;;;;;;4.25;2.40;;;12.10;61.00;;;;;;6115733;23;19998;-54
2021/12/15 04:08:00;;;;;;;4.22;2.63;;;12.10;60.90;;;;;;6111771;23;20006;-55
2021/12/15 04:10:27;;;;;;;3.45;2.13;;;12.10;60.80;;;;;;6113111;23;20010;-55
2021/12/15 04:12:53;;;;;;;3.83;2.15;;;12.10;60.80;;;;;;6115308;23;20013;-54
2021/12/15 04:18:03;;;;;;;4.13;2.38;;;12.10;60.80;;;;;;6121929;23;20446;-57
2021/12/15 04:20:33;;;;;;;2.67;2.00;;;12.10;60.60;;;;;;6112793;23;20002;-54
2021/12/15 04:23:00;;;;;;;6.20;2.75;;;12.00;60.50;;;;;;6115416;23;20431;-55
2021/12/15 04:25:31;;;;;;;3.58;2.28;;;12.00;60.50;;;;;;6111916;23;20006;-56
2021/12/15 04:28:02;;;;;;;2.78;2.13;;;12.00;60.50;;;;;;6111095;23;20379;-55
2021/12/15 04:30:31;;;;;;;3.15;2.08;;;12.00;60.50;;;;;;6110609;23;20280;-54
2021/12/15 04:33:07;;;;;;;2.92;2.00;;;12.00;60.60;;;;;;6112413;23;20005;-55
2021/12/15 04:35:35;;;;;;;3.22;2.00;;;12.10;60.60;;;;;;6115343;23;20420;-53
2021/12/15 04:38:01;;;;;;;3.53;2.25;;;12.00;60.40;;;;;;6113727;23;20002;-55
2021/12/15 04:40:28;;;;;;;3.67;2.42;;;12.00;60.50;;;;;;6113260;23;20006;-56
2021/12/15 04:42:55;;;;;;;3.42;2.35;;;12.00;60.50;;;;;;6115043;23;20002;-56
2021/12/15 04:45:22;;;;;;;2.58;2.05;;;12.00;60.50;;;;;;6113254;23;19998;-54
2021/12/15 04:47:51;;;;;;;3.33;2.17;;;12.00;60.50;;;;;;6110074;23;20006;-55
2021/12/15 04:50:21;;;;;;;5.72;2.30;;;12.10;60.40;;;;;;6114882;23;20339;-56
2021/12/15 04:52:49;;;;;;;2.70;2.00;;;12.00;60.40;;;;;;6113431;23;20006;-55
2021/12/15 04:55:16;;;;;;;2.33;2.08;;;12.00;60.30;;;;;;6113812;23;20021;-54
2021/12/15 04:57:43;;;;;;;3.15;2.10;;;12.10;60.20;;;;;;6114178;23;19998;-54
2021/12/15 05:00:14;;;;;;;2.97;2.30;;;12.10;60.10;;;;;;6114479;23;20324;-55
2021/12/15 05:02:41;;;;;;;2.78;1.95;;;12.10;60.00;;;;;;6111786;23;20339;-55
2021/12/15 05:05:09;;;;;;;3.58;2.28;;;12.10;60.00;;;;;;6114100;23;20462;-55
2021/12/15 05:07:36;;;;;;;3.97;2.50;;;12.10;60.10;;;;;;6115410;23;19998;-56
2021/12/15 05:10:04;;;;;;;6.78;3.58;;;12.00;60.10;;;;;;6114582;23;20340;-52
2021/12/15 05:12:31;;;;;;;8.95;3.05;;;12.10;60.10;;;;;;6117235;23;20009;-56
2021/12/15 05:14:57;;;;;;;3.95;2.72;;;12.10;60.10;;;;;;6116423;23;20048;-54
2021/12/15 05:17:23;;;;;;;3.65;2.40;;;12.10;60.10;;;;;;6106686;23;20009;-58
2021/12/15 05:19:50;;;;;;;5.28;2.15;;;12.10;60.10;;;;;;6116262;23;20300;-56
2021/12/15 05:22:16;;;;;;;4.72;2.38;;;12.10;60.00;;;;;;6113520;23;20538;-54
2021/12/15 05:24:43;;;;;;;5.32;2.78;;;12.00;60.00;;;;;;6138716;23;20033;-55
2021/12/15 05:27:14;;;;;;;3.72;2.20;;;12.10;60.00;;;;;;6114701;23;19998;-53
2021/12/15 05:29:43;;;;;;;5.43;2.60;;;12.10;60.10;;;;;;6110986;23;20016;-51
2021/12/15 05:32:11;;;;;;;4.28;2.53;;;12.10;60.10;;;;;;6113745;23;20008;-54
2021/12/15 05:34:38;;;;;;;5.22;2.53;;;12.10;60.20;;;;;;6116498;23;20016;-54
2021/12/15 05:37:05;;;;;;;4.35;2.45;;;12.10;60.30;;;;;;6116880;23;20006;-55
2021/12/15 05:39:32;;;;;;;4.32;2.45;;;12.10;60.40;;;;;;6114108;23;20002;-54
2021/12/15 05:41:59;;;;;;;3.78;2.47;;;12.10;60.50;;;;;;6115315;23;20002;-54
2021/12/15 05:44:25;;;;;;;3.58;2.60;;;12.10;60.60;;;;;;6106672;23;20017;-54
2021/12/15 05:46:54;;;;;;;2.70;1.75;;;12.10;60.50;;;;;;6109747;23;20014;-54
2021/12/15 05:49:20;;;;;;;3.67;2.28;;;12.10;60.60;;;;;;6114416;23;20316;-57
2021/12/15 05:51:47;;;;;;;3.13;2.10;;;12.10;60.50;;;;;;6110706;23;20017;-55
2021/12/15 05:54:14;;;;;;;4.15;2.40;;;12.10;60.50;;;;;;6115083;23;19994;-56
2021/12/15 05:56:41;;;;;;;6.50;2.35;;;12.10;60.50;;;;;;6116319;23;20006;-54
2021/12/15 05:59:08;;;;;;;3.55;2.10;;;12.10;60.60;;;;;;6115265;23;20313;-57
2021/12/15 06:01:35;;;;;;;4.30;2.60;;;12.10;60.70;;;;;;6113703;23;20009;-56
2021/12/15 06:04:03;;;;;;;4.10;2.60;;;12.10;60.70;;;;;;6116819;23;20013;-53
2021/12/15 06:06:30;;;;;;;5.95;3.10;;;12.10;60.80;;;;;;6115298;23;20009;-53
2021/12/15 06:08:56;;;;;;;4.05;2.83;;;12.10;60.80;;;;;;6114982;23;20359;-58
2021/12/15 06:11:23;;;;;;;6.57;3.38;;;12.10;60.90;;;;;;6115305;23;20006;-55
2021/12/15 06:13:50;;;;;;;5.28;2.85;;;12.10;61.00;;;;;;6115371;23;20312;-56
2021/12/15 06:16:18;;;;;;;11.05;4.10;;;12.10;61.10;;;;;;6110978;23;20021;-56
2021/12/15 06:18:47;;;;;;;5.10;2.85;;;12.10;61.10;;;;;;6114160;23;20020;-57
2021/12/15 06:21:13;;;;;;;4.93;2.90;;;12.10;61.20;;;;;;6114527;23;20002;-53
2021/12/15 06:23:40;;;;;;;4.68;2.65;;;12.10;61.20;;;;;;6114532;23;20009;-56
2021/12/15 06:26:07;;;;;;;4.75;2.90;;;12.10;61.20;;;;;;6115043;23;20009;-56
2021/12/15 06:28:35;;;;;;;8.50;3.15;;;12.10;61.30;;;;;;6114572;23;20058;-56
2021/12/15 06:31:03;;;;;;;3.95;2.67;;;12.10;61.30;;;;;;6111031;23;20025;-55
2021/12/15 06:33:29;;;;;;;7.32;2.97;;;12.10;61.30;;;;;;6112936;23;20001;-56
2021/12/15 06:35:57;;;;;;;7.90;2.85;;;12.10;61.40;;;;;;6114660;23;20002;-55
2021/12/15 06:38:29;;;;;;;4.72;2.53;;;12.10;61.50;;;;;;6113753;23;19998;-53
2021/12/15 06:40:57;;;;;;;3.40;2.25;;;12.10;61.70;;;;;;6123680;23;20452;-56
2021/12/15 06:43:24;;;;;;;4.18;2.58;;;12.00;61.80;;;;;;6111771;23;20006;-56
2021/12/15 06:59:29;;;;;;;5.55;2.45;;;12.10;62.30;;;;;;6120886;23;20017;-54
2021/12/15 07:01:55;;;;;;;5.20;2.30;;;12.00;62.50;;;;;;6109399;23;20603;-54
2021/12/15 07:04:23;;;;;;;3.65;2.25;;;12.00;62.60;;;;;;6107847;23;20002;-55
2021/12/15 07:06:50;;;;;;;5.53;2.58;;;12.00;62.80;;;;;;6113969;23;20028;-52
2021/12/15 07:09:17;;;;;;;4.25;2.40;;;12.00;63.00;;;;;;6112509;23;20459;-55
2021/12/15 07:11:44;;;;;;;7.15;2.13;;;12.00;63.10;;;;;;6115124;23;20001;-55
2021/12/15 07:14:10;;;;;;;2.85;1.92;;;12.00;63.20;;;;;;6114039;23;20009;-56
2021/12/15 07:16:43;;;;;;;3.28;2.45;;;12.00;63.20;;;;;;6111883;23;20018;-56
2021/12/15 07:19:19;;;;;;;4.10;2.53;;;12.00;63.20;;;;;;6124075;23;19994;-55
2021/12/15 07:22:05;;;;;;;4.63;2.92;;;12.00;63.30;;;;;;6114247;23;20063;-54
2021/12/15 07:24:32;;;;;;;4.82;2.45;;;12.00;63.30;;;;;;6114693;23;20009;-54
2021/12/15 07:27:00;;;;;;;6.90;3.70;;;12.00;63.30;;;;;;6110657;23;20013;-55
2021/12/15 07:29:28;;;;;;;5.30;3.25;;;12.00;63.40;;;;;;6104881;23;20021;-55
2021/12/15 07:31:55;;;;;;;3.78;2.95;;;12.00;63.40;;;;;;6105588;23;20013;-55
2021/12/15 07:34:21;;;;;;;3.33;2.25;;;12.00;63.50;;;;;;6111063;23;20631;-50
2021/12/15 07:36:48;;;;;;;6.50;2.90;;;11.90;63.50;;;;;;6108132;23;20003;-57
2021/12/15 07:39:15;;;;;;;4.15;2.60;;;11.90;63.50;;;;;;6111788;23;20328;-55
2021/12/15 07:41:50;;;;;;;3.22;2.05;;;11.90;63.50;;;;;;6110487;23;20018;-57
2021/12/15 07:44:18;;;;;;;3.42;2.20;;;11.90;63.50;;;;;;6109354;23;20010;-53
2021/12/15 07:46:46;;;;;;;3.15;2.25;;;11.90;63.50;;;;;;6107399;23;20331;-53
2021/12/15 07:49:13;;;;;;;4.30;2.10;;;11.90;63.50;;;;;;6109342;23;20006;-54
2021/12/15 07:51:45;;;;;;;3.13;2.20;;;11.90;63.50;;;;;;6108826;23;20006;-55
2021/12/15 07:54:13;;;;;;;4.38;1.92;;;11.90;63.60;;;;;;6120453;23;19998;-56
2021/12/15 07:56:39;;;;;;;3.55;1.77;;;11.90;63.50;;;;;;6107841;23;20089;-55
2021/12/15 07:59:05;;;;;;;7.30;2.20;;;11.90;63.50;;;;;;6106844;23;20005;-57
2021/12/15 08:01:32;;;;;;;5.20;2.05;;;11.90;63.50;;;;;;6109292;23;20008;-56
2021/12/15 08:03:58;;;;;;;3.47;2.03;;;11.90;63.50;;;;;;6110348;23;20002;-52
2021/12/15 08:06:26;;;;;;;3.65;2.05;;;11.90;63.50;;;;;;6110136;23;20435;-54
2021/12/15 08:08:53;;;;;;;7.50;2.05;;;11.90;63.50;;;;;;6113439;23;20022;-54
2021/12/15 08:11:19;;;;;;;4.70;1.95;;;11.90;63.40;;;;;;6113037;23;20013;-54
2021/12/15 08:13:47;;;;;;;5.57;2.00;;;11.90;63.40;;;;;;6114424;23;20014;-55
2021/12/15 08:16:14;;;;;;;5.25;1.77;;;11.90;63.40;;;;;;6113893;23;20021;-55
2021/12/15 08:18:41;;;;;;;3.45;1.77;;;11.90;63.50;;;;;;6113565;23;20005;-54
2021/12/15 08:21:08;;;;;;;6.05;2.03;;;11.90;63.50;;;;;;6113301;23;20002;-54
2021/12/15 08:23:35;;;;;;;14.13;1.92;;;12.00;63.50;;;;;;6115452;23;20002;-57
2021/12/15 08:26:02;;;;;;;10.60;2.03;;;12.00;63.50;;;;;;6114455;23;20013;-52
2021/12/15 08:28:28;;;;;;;3.17;1.85;;;12.00;63.50;;;;;;6113088;23;20009;-50
2021/12/15 08:30:54;;;;;;;3.47;1.58;;;12.00;63.30;;;;;;6113585;23;20017;-51
2021/12/15 08:33:22;;;;;;;2.17;1.50;;;12.00;63.30;;;;;;6114095;23;20331;-54
2021/12/15 08:35:53;;;;;;;1.92;1.45;;;12.00;63.20;;;;;;6112586;23;20026;-56
2021/12/15 08:38:20;;;;;;;5.22;1.50;;;12.00;63.10;;;;;;6112386;23;20028;-55
2021/12/15 08:40:48;;;;;;;3.30;1.30;;;12.10;63.10;;;;;;6116562;23;20331;-52
2021/12/15 08:43:15;;;;;;;2.53;1.50;;;12.10;63.00;;;;;;6116145;23;20002;-55
2021/12/15 08:45:46;;;;;;;2.90;1.17;;;12.10;63.00;;;;;;6112544;23;20009;-53
2021/12/15 08:48:12;;;;;;;2.70;1.33;;;12.10;63.00;;;;;;6115591;23;20331;-54
2021/12/15 08:50:41;;;;;;;2.08;1.27;;;12.10;62.90;;;;;;6117571;23;20010;-53
2021/12/15 08:53:10;;;;;;;3.17;1.00;;;12.10;62.90;;;;;;6114715;23;20013;-56
2021/12/15 08:55:44;;;;;;;3.17;1.40;;;12.10;62.90;;;;;;6114689;23;20332;-55
2021/12/15 08:58:12;;;;;;;;;;;12.10;62.80;;;;;;6126163;23;20304;-54
2021/12/15 09:00:42;;;;;;;2.50;1.50;;;12.20;63.00;;;;;;6114392;23;20262;-56
2021/12/15 09:03:09;;;;;;;2.35;1.33;;;12.20;62.60;;;;;;6115434;23;20002;-54
2021/12/15 09:05:36;;;;;;;1.38;1.17;;;12.20;62.60;;;;;;6116822;23;20010;-52
2021/12/15 09:08:04;;;;;;;1.58;1.08;;;12.30;62.70;;;;;;6089156;23;20020;-53
2021/12/15 09:10:33;;;;;;;3.92;1.30;;;12.30;62.80;;;;;;6124142;23;20002;-53
2021/12/15 09:13:00;;;;;;;2.22;1.00;;;12.30;62.80;;;;;;6115899;23;20331;-57
2021/12/15 09:15:27;;;;;;;1.23;1.08;;;12.30;62.80;;;;;;6113452;23;20002;-56
2021/12/15 09:17:54;;;;;;;4.07;1.50;;;12.30;62.80;;;;;;6088016;23;20036;-55
2021/12/15 09:20:23;;;;;;;2.53;1.33;;;12.30;62.70;;;;;;6116958;23;20002;-57
2021/12/15 09:22:49;;;;;;;1.02;0.90;;;12.40;62.70;;;;;;6116160;23;20005;-55
2021/12/15 09:25:16;;;;;;;2.08;1.17;;;12.40;62.70;;;;;;6114954;23;20025;-52
2021/12/15 09:27:44;;;;;;;1.98;1.48;;;12.40;62.60;;;;;;6114709;23;20009;-55
2021/12/15 09:30:14;;;;;;;4.13;1.15;;;12.40;62.60;;;;;;6114931;23;19998;-53
2021/12/15 09:32:40;;;;;;;1.98;1.08;;;12.40;62.50;;;;;;6113321;23;20010;-55
2021/12/15 09:35:09;;;;;;;2.00;1.20;;;12.50;62.60;;;;;;6115409;23;20006;-56
2021/12/15 09:37:36;;;;;;;1.05;0.80;;;12.50;62.60;;;;;;6113806;23;20427;-56
2021/12/15 09:40:04;;;;;;;2.00;1.05;;;12.50;62.60;;;;;;6114597;23;20008;-55
2021/12/15 09:42:35;;;;;;;2.38;1.08;;;12.50;62.70;;;;;;6115496;23;20009;-55
2021/12/15 09:45:22;;;;;;;1.23;1.00;;;12.50;62.80;;;;;;6114438;23;20343;-55
2021/12/15 10:12:24;;;;;;;;;;;12.70;63.20;;;;;;6124349;23;20026;-54
2021/12/15 10:17:48;;;;;;;1.90;1.23;;;12.70;63.10;;;;;;6124224;23;20021;-54
2021/12/15 10:20:22;;;;;;;2.22;1.35;;;12.70;63.20;;;;;;6121972;23;20447;-54
2021/12/15 10:22:52;;;;;;;1.92;1.42;;;12.70;63.30;;;;;;6122792;23;19998;-53
2021/12/15 10:25:26;;;;;;;2.92;1.50;;;12.70;63.40;;;;;;6115671;23;20388;-52
2021/12/15 10:28:03;;;;;;;2.67;1.55;;;12.70;63.40;;;;;;6122575;23;20006;-55
2021/12/15 10:30:50;;;;;;;2.92;1.60;;;12.70;63.60;;;;;;6115502;23;20010;-55
2021/12/15 10:33:25;;;;;;;2.08;1.40;;;12.80;63.60;;;;;;6113668;23;20014;-54
2021/12/15 10:35:57;;;;;;;4.03;1.70;;;12.80;63.60;;;;;;6111727;23;20360;-55
2021/12/15 10:38:33;;;;;;;2.00;1.30;;;12.80;63.60;;;;;;6115165;23;20006;-56
2021/12/15 10:41:17;;;;;;;3.63;1.30;;;12.80;63.40;;;;;;6124796;23;20005;-56
2021/12/15 10:43:59;;;;;;;1.40;1.10;;;12.80;63.20;;;;;;6114235;23;20447;-55
2021/12/15 10:46:38;;;;;;;1.45;1.10;;;12.80;63.10;;;;;;6123939;23;20002;-57
2021/12/15 10:49:18;;;;;;;3.40;1.40;;;12.90;63.10;;;;;;6113747;23;20014;-54
2021/12/15 10:52:00;;;;;;;1.27;1.13;;;12.90;63.00;;;;;;6124671;23;19997;-56
2021/12/15 10:54:44;;;;;;;2.75;1.10;;;12.90;62.70;;;;;;6124597;23;20002;-56
2021/12/15 10:57:11;;;;;;;3.15;1.70;;;12.90;63.40;;;;;;6114963;23;20010;-52
2021/12/15 10:59:48;;;;;;;3.05;1.42;;;13.00;62.80;;;;;;6115483;23;20009;-55
2021/12/15 11:02:21;;;;;;;1.85;0.95;;;13.00;62.60;;;;;;6113150;23;20006;-54
2021/12/15 11:04:54;;;;;;;2.60;1.48;;;13.00;62.50;;;;;;6123686;23;20010;-55
2021/12/15 11:07:25;;;;;;;3.10;1.42;;;13.00;62.40;;;;;;6114866;23;20014;-56
2021/12/15 11:09:57;;;;;;;1.85;1.17;;;13.00;62.00;;;;;;6114355;23;20018;-55
2021/12/15 11:12:28;;;;;;;2.35;1.17;;;13.00;62.10;;;;;;6113638;23;20032;-55
2021/12/15 11:15:06;;;;;;;1.42;1.10;;;13.00;62.10;;;;;;6123596;23;20312;-54
2021/12/15 11:17:49;;;;;;;1.85;1.13;;;13.00;62.00;;;;;;6113245;23;20010;-55
2021/12/15 11:20:31;;;;;;;2.80;1.60;;;13.10;62.00;;;;;;6123993;23;20417;-55
2021/12/15 11:23:09;;;;;;;2.15;1.33;;;13.00;61.90;;;;;;6124137;23;20006;-55
2021/12/15 11:25:35;;;;;;;3.60;1.50;;;13.10;62.00;;;;;;6124974;23;19994;-51
2021/12/15 11:28:27;;;;;;;1.88;1.20;;;13.10;62.10;;;;;;6114417;23;20446;-54
2021/12/15 11:31:08;;;;;;;2.47;1.48;;;13.10;61.90;;;;;;6097453;23;20010;-57
2021/12/15 11:33:41;;;;;;;4.68;1.20;;;13.20;62.00;;;;;;6123781;23;20012;-56
2021/12/15 11:36:19;;;;;;;1.67;1.17;;;13.20;61.90;;;;;;6124206;23;20071;-57
2021/12/15 11:38:48;;;;;;;4.50;1.13;;;13.20;61.90;;;;;;6112363;23;20005;-54
2021/12/15 11:41:29;;;;;;;2.75;1.10;;;13.20;61.90;;;;;;6112990;23;20447;-54
2021/12/15 11:44:02;;;;;;;2.10;0.88;;;13.20;61.90;;;;;;6111151;23;20017;-56
2021/12/15 11:46:38;;;;;;;1.65;1.20;;;13.30;61.90;;;;;;6114016;23;20010;-55
2021/12/15 11:49:13;;;;;;;1.02;0.80;;;13.30;61.80;;;;;;6121063;23;20440;-57
2021/12/15 11:51:50;;;;;;;1.67;1.10;;;13.30;61.70;;;;;;6125320;23;20328;-52
2021/12/15 11:54:21;;;;;;;3.30;1.70;;;13.30;61.80;;;;;;6125091;23;20009;-55
2021/12/15 11:56:53;;;;;;;2.13;1.08;;;13.30;61.70;;;;;;6121586;23;20010;-56
2021/12/15 11:59:21;;;;;;;4.93;1.00;;;13.30;61.60;;;;;;6124582;23;20002;-57
2021/12/15 12:01:54;;;;;;;0.98;0.85;;;13.40;61.50;;;;;;6112366;23;20009;-55
2021/12/15 12:04:29;;;;;;;1.38;1.08;;;13.40;61.40;;;;;;6113963;23;20305;-54
2021/12/15 12:07:11;;;;;;;2.08;0.98;;;13.40;61.30;;;;;;6115253;23;20013;-57
2021/12/15 12:09:39;;;;;;;1.23;1.02;;;13.40;61.30;;;;;;6117298;23;20018;-57
2021/12/15 12:12:07;;;;;;;4.07;1.25;;;13.50;61.40;;;;;;6114055;23;20021;-55
2021/12/15 12:14:43;;;;;;;1.30;1.20;;;13.50;61.20;;;;;;6116296;23;19998;-56
2021/12/15 12:17:15;;;;;;;2.67;1.50;;;13.50;61.20;;;;;;6112714;23;20439;-57
2021/12/15 12:19:48;;;;;;;3.15;1.10;;;13.50;61.10;;;;;;6114035;23;20455;-57
2021/12/15 12:22:16;;;;;;;2.80;1.40;;;13.50;61.10;;;;;;6117447;23;20009;-54
2021/12/15 12:24:48;;;;;;;1.45;1.20;;;13.50;61.00;;;;;;6116284;23;20002;-55
2021/12/15 12:27:14;;;;;;;3.22;1.10;;;13.50;61.00;;;;;;6124448;23;20428;-57
2021/12/15 12:29:44;;;;;;;1.67;1.33;;;13.50;61.00;;;;;;6115039;23;20002;-56
2021/12/15 12:32:11;;;;;;;1.67;1.23;;;13.50;61.00;;;;;;6114071;23;20181;-54
2021/12/15 12:34:40;;;;;;;4.80;1.20;;;13.50;61.10;;;;;;6113333;23;20423;-54
2021/12/15 12:37:06;;;;;;;2.03;1.33;;;13.50;61.00;;;;;;6111357;23;20340;-56
2021/12/15 12:39:36;;;;;;;1.40;1.20;;;13.60;61.10;;;;;;6111562;23;20422;-53
2021/12/15 12:42:02;;;;;;;3.25;1.30;;;13.60;61.00;;;;;;6108715;23;20025;-55
2021/12/15 12:44:37;;;;;;;2.92;1.50;;;13.60;61.00;;;;;;6109291;23;20229;-54
2021/12/15 12:47:28;;;;;;;3.72;1.55;;;13.60;61.00;;;;;;6118657;23;20619;-56
2021/12/15 12:50:35;;;;;;;1.90;1.20;;;13.60;61.10;;;;;;6120216;23;20419;-53
2021/12/15 13:01:15;;;;;;;5.03;1.30;;;13.60;61.10;;;;;;6118433;23;20029;-57
2021/12/15 13:03:56;;;;;;;2.17;1.25;;;13.60;61.20;;;;;;6116075;23;20021;-57
2021/12/15 13:06:37;;;;;;;1.98;1.35;;;13.60;61.30;;;;;;6115178;23;20024;-54
2021/12/15 13:09:17;;;;;;;1.83;1.35;;;13.60;61.40;;;;;;6120341;23;20204;-52
2021/12/15 13:11:50;;;;;;;4.80;1.08;;;13.60;61.40;;;;;;6114993;23;20021;-54
2021/12/15 13:14:19;;;;;;;3.10;1.50;;;13.70;61.50;;;;;;6117332;23;20458;-53
2021/12/15 13:16:56;;;;;;;7.70;3.05;;;13.70;61.50;;;;;;6115090;23;20173;-55
2021/12/15 13:19:32;;;;;;;8.88;3.50;;;13.70;61.40;;;;;;6126162;23;20006;-54
2021/12/15 13:31:00;;;;;;;6.20;2.85;;;13.70;61.20;;;;;;6125679;23;20020;-57
2021/12/15 13:33:29;;;;;;;3.08;2.08;;;13.70;61.20;;;;;;6115831;23;20347;-55
2021/12/15 13:36:21;;;;;;;3.67;1.83;;;13.80;61.30;;;;;;6116772;23;20428;-57
2021/12/15 13:38:55;;;;;;;2.50;1.50;;;13.70;62.00;;;;;;6116212;23;20021;-55
2021/12/15 13:41:49;;;;;;;2.85;1.73;;;13.70;61.30;;;;;;6111976;23;20002;-56
2021/12/15 13:44:30;;;;;;;2.63;1.83;;;13.70;61.20;;;;;;6122414;23;19994;-53
2021/12/15 13:47:01;;;;;;;2.90;1.30;;;13.70;61.20;;;;;;6112186;23;20014;-57
2021/12/15 13:49:46;;;;;;;3.83;2.20;;;13.70;61.30;;;;;;6113345;23;20016;-53
2021/12/15 13:52:19;;;;;;;5.47;1.70;;;13.70;61.20;;;;;;6124577;23;20040;-55
2021/12/15 13:54:45;;;;;;;3.93;1.60;;;13.70;61.20;;;;;;6125806;23;20006;-57
2021/12/15 13:57:12;;;;;;;3.35;1.50;;;13.70;61.20;;;;;;6113877;23;20440;-54
2021/12/15 13:59:53;;;;;;;3.92;1.38;;;13.70;61.30;;;;;;6115395;23;19998;-55
2021/12/15 14:02:22;;;;;;;4.50;1.95;;;13.70;61.30;;;;;;6114194;23;20261;-54
2021/12/15 14:04:57;;;;;;;2.13;1.30;;;13.70;61.30;;;;;;6113337;23;20002;-53
2021/12/15 14:07:47;;;;;;;1.83;1.30;;;13.70;61.20;;;;;;6116995;23;20006;-57
2021/12/15 14:10:13;;;;;;;1.80;1.33;;;13.70;61.20;;;;;;6115846;23;20301;-54
2021/12/15 14:12:50;;;;;;;1.27;1.10;;;13.70;61.20;;;;;;6114339;23;20005;-56
2021/12/15 14:15:34;;;;;;;4.43;1.30;;;13.70;61.10;;;;;;6115139;23;20010;-56
2021/12/15 14:18:30;;;;;;;3.55;1.27;;;13.70;61.20;;;;;;6121967;23;20272;-53
2021/12/15 14:21:02;;;;;;;2.67;1.42;;;13.70;61.20;;;;;;6124914;23;20020;-55
2021/12/15 14:23:41;;;;;;;2.47;1.35;;;13.70;61.10;;;;;;6114616;23;20141;-54
2021/12/15 14:26:12;;;;;;;1.45;1.20;;;13.70;61.10;;;;;;6124578;23;20017;-56
2021/12/15 14:28:48;;;;;;;1.55;1.15;;;13.70;61.20;;;;;;6124082;23;20328;-55
2021/12/15 14:31:36;;;;;;;2.13;1.13;;;13.70;61.20;;;;;;6111543;23;20025;-57
2021/12/15 14:34:10;;;;;;;3.28;1.50;;;13.70;61.20;;;;;;6123501;23;19994;-56
2021/12/15 14:36:43;;;;;;;5.57;1.85;;;13.70;61.20;;;;;;6122865;23;20002;-54
2021/12/15 14:39:13;;;;;;;3.60;1.40;;;13.70;61.20;;;;;;6121587;23;20005;-54